sensor_id;sensor_type;location;lat;lon;timestamp;temperature;humidity
25342;DHT22;13298;48.792;9.154;2024-03-02T00:00:21;5.40;99.90
25342;DHT22;13298;48.792;9.154;2024-03-02T00:02:49;5.40;99.90
25342;DHT22;13298;48.792;9.154;2024-03-02T00:05:17;5.40;99.90
25342;DHT22;13298;48.792;9.154;2024-03-02T00:07:45;5.40;99.90
25342;DHT22;13298;48.792;9.154;2024-03-02T00:10:20;5.40;99.90
25342;DHT22;13298;48.792;9.154;2024-03-02T00:12:54;5.40;99.90
25342;DHT22;13298;48.792;9.154;2024-03-02T00:15:33;5.40;99.90
25342;DHT22;13298;48.792;9.154;2024-03-02T00:18:01;5.40;99.90
25342;DHT22;13298;48.792;9.154;2024-03-02T00:20:26;5.40;99.90
25342;DHT22;13298;48.792;9.154;2024-03-02T00:23:00;5.30;99.90
25342;DHT22;13298;48.792;9.154;2024-03-02T00:25:42;5.30;99.90
25342;DHT22;13298;48.792;9.154;2024-03-02T00:28:16;5.30;99.90
25342;DHT22;13298;48.792;9.154;2024-03-02T00:33:10;5.30;99.90
25342;DHT22;13298;48.792;9.154;2024-03-02T00:35:36;5.20;99.90
25342;DHT22;13298;48.792;9.154;2024-03-02T00:38:05;5.20;99.90
25342;DHT22;13298;48.792;9.154;2024-03-02T00:40:32;5.20;99.90
25342;DHT22;13298;48.792;9.154;2024-03-02T00:42:57;5.20;99.90
25342;DHT22;13298;48.792;9.154;2024-03-02T00:45:24;5.20;99.90
25342;DHT22;13298;48.792;9.154;2024-03-02T00:47:51;5.20;99.90
25342;DHT22;13298;48.792;9.154;2024-03-02T00:50:17;5.20;99.90
25342;DHT22;13298;48.792;9.154;2024-03-02T00:52:43;5.10;99.90
25342;DHT22;13298;48.792;9.154;2024-03-02T00:55:09;5.20;99.90
25342;DHT22;13298;48.792;9.154;2024-03-02T00:57:35;5.10;99.90
25342;DHT22;13298;48.792;9.154;2024-03-02T01:00:01;5.10;99.90
25342;DHT22;13298;48.792;9.154;2024-03-02T01:02:28;5.10;99.90
25342;DHT22;13298;48.792;9.154;2024-03-02T01:04:54;5.10;99.90
25342;DHT22;13298;48.792;9.154;2024-03-02T01:07:20;5.10;99.90
25342;DHT22;13298;48.792;9.154;2024-03-02T01:09:46;5.10;99.90
25342;DHT22;13298;48.792;9.154;2024-03-02T01:12:11;5.10;99.90
25342;DHT22;13298;48.792;9.154;2024-03-02T01:14:37;5.00;99.90
25342;DHT22;13298;48.792;9.154;2024-03-02T01:17:03;5.00;99.90
25342;DHT22;13298;48.792;9.154;2024-03-02T01:19:31;5.00;99.90
25342;DHT22;13298;48.792;9.154;2024-03-02T01:21:56;5.00;99.90
25342;DHT22;13298;48.792;9.154;2024-03-02T01:24:22;4.90;99.90
25342;DHT22;13298;48.792;9.154;2024-03-02T01:26:48;4.90;99.90
25342;DHT22;13298;48.792;9.154;2024-03-02T01:29:13;4.80;99.90
25342;DHT22;13298;48.792;9.154;2024-03-02T01:31:39;4.80;99.90
25342;DHT22;13298;48.792;9.154;2024-03-02T01:34:08;4.70;99.90
25342;DHT22;13298;48.792;9.154;2024-03-02T01:36:33;4.70;99.90
25342;DHT22;13298;48.792;9.154;2024-03-02T01:38:59;4.60;99.90
25342;DHT22;13298;48.792;9.154;2024-03-02T01:41:26;4.50;99.90
25342;DHT22;13298;48.792;9.154;2024-03-02T01:43:52;4.50;99.90
25342;DHT22;13298;48.792;9.154;2024-03-02T01:46:18;4.40;99.90
25342;DHT22;13298;48.792;9.154;2024-03-02T01:48:43;4.40;99.90
25342;DHT22;13298;48.792;9.154;2024-03-02T01:51:09;4.40;99.90
25342;DHT22;13298;48.792;9.154;2024-03-02T01:53:36;4.30;99.90
25342;DHT22;13298;48.792;9.154;2024-03-02T01:56:02;4.20;99.90
25342;DHT22;13298;48.792;9.154;2024-03-02T01:58:28;4.20;99.90
25342;DHT22;13298;48.792;9.154;2024-03-02T02:00:53;4.10;99.90
25342;DHT22;13298;48.792;9.154;2024-03-02T02:03:19;4.10;99.90
25342;DHT22;13298;48.792;9.154;2024-03-02T02:05:45;4.10;99.90
25342;DHT22;13298;48.792;9.154;2024-03-02T02:08:13;4.10;99.90
25342;DHT22;13298;48.792;9.154;2024-03-02T02:10:39;4.00;99.90
25342;DHT22;13298;48.792;9.154;2024-03-02T02:13:04;4.00;99.90
25342;DHT22;13298;48.792;9.154;2024-03-02T02:15:30;4.00;99.90
25342;DHT22;13298;48.792;9.154;2024-03-02T02:17:57;3.90;99.90
25342;DHT22;13298;48.792;9.154;2024-03-02T02:20:23;3.90;99.90
25342;DHT22;13298;48.792;9.154;2024-03-02T02:23:00;3.90;99.90
25342;DHT22;13298;48.792;9.154;2024-03-02T02:25:30;3.80;99.90
25342;DHT22;13298;48.792;9.154;2024-03-02T02:27:56;3.80;99.90
25342;DHT22;13298;48.792;9.154;2024-03-02T02:30:27;3.80;99.90
25342;DHT22;13298;48.792;9.154;2024-03-02T02:32:54;3.70;99.90
25342;DHT22;13298;48.792;9.154;2024-03-02T02:35:20;3.70;99.90
25342;DHT22;13298;48.792;9.154;2024-03-02T02:37:47;3.70;99.90
25342;DHT22;13298;48.792;9.154;2024-03-02T02:40:13;3.70;99.90
25342;DHT22;13298;48.792;9.154;2024-03-02T02:42:39;3.70;99.90
25342;DHT22;13298;48.792;9.154;2024-03-02T02:45:08;3.70;99.90
25342;DHT22;13298;48.792;9.154;2024-03-02T02:47:34;3.70;99.90
25342;DHT22;13298;48.792;9.154;2024-03-02T02:50:02;3.70;99.90
25342;DHT22;13298;48.792;9.154;2024-03-02T02:52:35;3.70;99.90
25342;DHT22;13298;48.792;9.154;2024-03-02T02:55:03;3.60;99.90
25342;DHT22;13298;48.792;9.154;2024-03-02T02:57:30;3.70;99.90
25342;DHT22;13298;48.792;9.154;2024-03-02T03:00:01;3.70;99.90
25342;DHT22;13298;48.792;9.154;2024-03-02T03:02:30;3.60;99.90
25342;DHT22;13298;48.792;9.154;2024-03-02T03:04:56;3.60;99.90
25342;DHT22;13298;48.792;9.154;2024-03-02T03:07:23;3.60;99.90
25342;DHT22;13298;48.792;9.154;2024-03-02T03:09:48;3.60;99.90
25342;DHT22;13298;48.792;9.154;2024-03-02T03:12:14;3.70;99.90
25342;DHT22;13298;48.792;9.154;2024-03-02T03:14:43;3.70;99.90
25342;DHT22;13298;48.792;9.154;2024-03-02T03:17:08;3.70;99.90
25342;DHT22;13298;48.792;9.154;2024-03-02T03:19:34;3.80;99.90
25342;DHT22;13298;48.792;9.154;2024-03-02T03:22:01;3.80;99.90
25342;DHT22;13298;48.792;9.154;2024-03-02T03:24:26;3.80;99.90
25342;DHT22;13298;48.792;9.154;2024-03-02T03:26:52;3.80;99.90
25342;DHT22;13298;48.792;9.154;2024-03-02T03:29:18;3.80;99.90
25342;DHT22;13298;48.792;9.154;2024-03-02T03:31:43;3.80;99.90
25342;DHT22;13298;48.792;9.154;2024-03-02T03:34:09;3.80;99.90
25342;DHT22;13298;48.792;9.154;2024-03-02T03:36:35;3.80;99.90
25342;DHT22;13298;48.792;9.154;2024-03-02T03:39:02;3.80;99.90
25342;DHT22;13298;48.792;9.154;2024-03-02T03:41:28;3.80;99.90
25342;DHT22;13298;48.792;9.154;2024-03-02T03:43:54;3.70;99.90
25342;DHT22;13298;48.792;9.154;2024-03-02T03:46:20;3.70;99.90
25342;DHT22;13298;48.792;9.154;2024-03-02T03:48:46;3.80;99.90
25342;DHT22;13298;48.792;9.154;2024-03-02T03:51:12;3.70;99.90
25342;DHT22;13298;48.792;9.154;2024-03-02T03:53:37;3.80;99.90
25342;DHT22;13298;48.792;9.154;2024-03-02T03:56:04;3.80;99.90
25342;DHT22;13298;48.792;9.154;2024-03-02T03:58:29;3.80;99.90
25342;DHT22;13298;48.792;9.154;2024-03-02T04:00:55;3.80;99.90
25342;DHT22;13298;48.792;9.154;2024-03-02T04:03:21;3.90;99.90
25342;DHT22;13298;48.792;9.154;2024-03-02T04:05:47;3.90;99.90
25342;DHT22;13298;48.792;9.154;2024-03-02T04:08:12;3.90;99.90
25342;DHT22;13298;48.792;9.154;2024-03-02T04:10:38;3.90;99.90
25342;DHT22;13298;48.792;9.154;2024-03-02T04:13:05;3.90;99.90
25342;DHT22;13298;48.792;9.154;2024-03-02T04:15:31;3.90;99.90
25342;DHT22;13298;48.792;9.154;2024-03-02T04:17:57;4.00;99.90
25342;DHT22;13298;48.792;9.154;2024-03-02T04:20:22;3.90;99.90
25342;DHT22;13298;48.792;9.154;2024-03-02T04:22:48;4.00;99.90
25342;DHT22;13298;48.792;9.154;2024-03-02T04:25:14;3.90;99.90
25342;DHT22;13298;48.792;9.154;2024-03-02T04:27:39;4.00;99.90
25342;DHT22;13298;48.792;9.154;2024-03-02T04:30:07;3.90;99.90
25342;DHT22;13298;48.792;9.154;2024-03-02T04:32:32;4.00;99.90
25342;DHT22;13298;48.792;9.154;2024-03-02T04:34:58;4.00;99.90
25342;DHT22;13298;48.792;9.154;2024-03-02T04:37:24;4.00;99.90
25342;DHT22;13298;48.792;9.154;2024-03-02T04:39:49;4.00;99.90
25342;DHT22;13298;48.792;9.154;2024-03-02T04:42:15;4.00;99.90
25342;DHT22;13298;48.792;9.154;2024-03-02T04:44:41;4.00;99.90
25342;DHT22;13298;48.792;9.154;2024-03-02T04:47:07;4.00;99.90
25342;DHT22;13298;48.792;9.154;2024-03-02T04:49:32;4.00;99.90
25342;DHT22;13298;48.792;9.154;2024-03-02T04:51:58;4.00;99.90
25342;DHT22;13298;48.792;9.154;2024-03-02T04:54:24;4.00;99.90
25342;DHT22;13298;48.792;9.154;2024-03-02T04:56:49;4.00;99.90
25342;DHT22;13298;48.792;9.154;2024-03-02T04:59:19;4.00;99.90
25342;DHT22;13298;48.792;9.154;2024-03-02T05:01:45;4.10;99.90
25342;DHT22;13298;48.792;9.154;2024-03-02T05:04:11;4.00;99.90
25342;DHT22;13298;48.792;9.154;2024-03-02T05:06:40;4.00;99.90
25342;DHT22;13298;48.792;9.154;2024-03-02T05:09:07;4.00;99.90
25342;DHT22;13298;48.792;9.154;2024-03-02T05:11:33;4.00;99.90
25342;DHT22;13298;48.792;9.154;2024-03-02T05:14:19;4.00;99.90
25342;DHT22;13298;48.792;9.154;2024-03-02T05:16:44;4.00;99.90
25342;DHT22;13298;48.792;9.154;2024-03-02T05:19:10;4.00;99.90
25342;DHT22;13298;48.792;9.154;2024-03-02T05:21:36;4.00;99.90
25342;DHT22;13298;48.792;9.154;2024-03-02T05:24:01;3.90;99.90
25342;DHT22;13298;48.792;9.154;2024-03-02T05:26:27;3.90;99.90
25342;DHT22;13298;48.792;9.154;2024-03-02T05:28:53;3.90;99.90
25342;DHT22;13298;48.792;9.154;2024-03-02T05:31:19;3.90;99.90
25342;DHT22;13298;48.792;9.154;2024-03-02T05:33:44;3.90;99.90
25342;DHT22;13298;48.792;9.154;2024-03-02T05:36:10;3.90;99.90
25342;DHT22;13298;48.792;9.154;2024-03-02T05:38:36;3.90;99.90
25342;DHT22;13298;48.792;9.154;2024-03-02T05:41:02;3.90;99.90
25342;DHT22;13298;48.792;9.154;2024-03-02T05:43:28;3.90;99.90
25342;DHT22;13298;48.792;9.154;2024-03-02T05:45:54;3.80;99.90
25342;DHT22;13298;48.792;9.154;2024-03-02T05:48:19;3.80;99.90
25342;DHT22;13298;48.792;9.154;2024-03-02T05:50:45;3.80;99.90
25342;DHT22;13298;48.792;9.154;2024-03-02T05:53:11;3.80;99.90
25342;DHT22;13298;48.792;9.154;2024-03-02T05:55:37;3.80;99.90
25342;DHT22;13298;48.792;9.154;2024-03-02T05:58:02;3.80;99.90
25342;DHT22;13298;48.792;9.154;2024-03-02T06:00:31;3.80;99.90
25342;DHT22;13298;48.792;9.154;2024-03-02T06:02:57;3.80;99.90
25342;DHT22;13298;48.792;9.154;2024-03-02T06:05:23;3.80;99.90
25342;DHT22;13298;48.792;9.154;2024-03-02T06:07:50;3.80;99.90
25342;DHT22;13298;48.792;9.154;2024-03-02T06:10:16;3.80;99.90
25342;DHT22;13298;48.792;9.154;2024-03-02T06:12:42;3.80;99.90
25342;DHT22;13298;48.792;9.154;2024-03-02T06:15:09;3.80;99.90
25342;DHT22;13298;48.792;9.154;2024-03-02T06:17:35;3.80;99.90
25342;DHT22;13298;48.792;9.154;2024-03-02T06:20:01;3.80;99.90
25342;DHT22;13298;48.792;9.154;2024-03-02T06:22:28;4.00;99.90
25342;DHT22;13298;48.792;9.154;2024-03-02T06:24:53;4.00;99.90
25342;DHT22;13298;48.792;9.154;2024-03-02T06:27:19;4.10;99.90
25342;DHT22;13298;48.792;9.154;2024-03-02T06:29:45;4.20;99.90
25342;DHT22;13298;48.792;9.154;2024-03-02T06:32:10;4.30;99.90
25342;DHT22;13298;48.792;9.154;2024-03-02T06:34:36;4.40;99.90
25342;DHT22;13298;48.792;9.154;2024-03-02T06:37:02;4.50;99.90
25342;DHT22;13298;48.792;9.154;2024-03-02T06:39:27;4.60;99.90
25342;DHT22;13298;48.792;9.154;2024-03-02T06:41:53;4.80;99.90
25342;DHT22;13298;48.792;9.154;2024-03-02T06:44:19;4.90;99.90
25342;DHT22;13298;48.792;9.154;2024-03-02T06:46:45;4.90;99.90
25342;DHT22;13298;48.792;9.154;2024-03-02T06:49:10;5.00;99.90
25342;DHT22;13298;48.792;9.154;2024-03-02T06:51:36;5.10;99.90
25342;DHT22;13298;48.792;9.154;2024-03-02T06:54:02;5.20;99.90
25342;DHT22;13298;48.792;9.154;2024-03-02T06:56:28;5.30;99.90
25342;DHT22;13298;48.792;9.154;2024-03-02T06:58:53;5.40;99.90
25342;DHT22;13298;48.792;9.154;2024-03-02T07:01:19;5.40;99.90
25342;DHT22;13298;48.792;9.154;2024-03-02T07:03:45;5.50;99.90
25342;DHT22;13298;48.792;9.154;2024-03-02T07:06:11;5.60;99.90
25342;DHT22;13298;48.792;9.154;2024-03-02T07:08:37;5.70;99.90
25342;DHT22;13298;48.792;9.154;2024-03-02T07:11:03;5.80;99.90
25342;DHT22;13298;48.792;9.154;2024-03-02T07:13:28;5.90;99.90
25342;DHT22;13298;48.792;9.154;2024-03-02T07:15:54;6.00;99.90
25342;DHT22;13298;48.792;9.154;2024-03-02T07:18:29;6.00;99.90
25342;DHT22;13298;48.792;9.154;2024-03-02T07:21:07;6.20;99.90
25342;DHT22;13298;48.792;9.154;2024-03-02T07:23:32;6.20;99.90
25342;DHT22;13298;48.792;9.154;2024-03-02T07:25:58;6.30;99.90
25342;DHT22;13298;48.792;9.154;2024-03-02T07:28:26;6.30;99.90
25342;DHT22;13298;48.792;9.154;2024-03-02T07:30:59;6.40;99.90
25342;DHT22;13298;48.792;9.154;2024-03-02T07:33:25;6.50;99.90
25342;DHT22;13298;48.792;9.154;2024-03-02T07:35:51;6.50;99.90
25342;DHT22;13298;48.792;9.154;2024-03-02T07:38:17;6.50;99.90
25342;DHT22;13298;48.792;9.154;2024-03-02T07:40:43;6.60;99.90
25342;DHT22;13298;48.792;9.154;2024-03-02T07:43:09;6.60;99.90
25342;DHT22;13298;48.792;9.154;2024-03-02T07:45:35;6.50;99.90
25342;DHT22;13298;48.792;9.154;2024-03-02T07:48:01;6.50;99.90
25342;DHT22;13298;48.792;9.154;2024-03-02T07:50:29;6.50;99.90
25342;DHT22;13298;48.792;9.154;2024-03-02T07:52:55;6.50;99.90
25342;DHT22;13298;48.792;9.154;2024-03-02T07:55:21;6.50;99.90
25342;DHT22;13298;48.792;9.154;2024-03-02T07:57:49;6.50;99.90
25342;DHT22;13298;48.792;9.154;2024-03-02T08:00:15;6.50;99.90
25342;DHT22;13298;48.792;9.154;2024-03-02T08:02:41;6.40;99.90
25342;DHT22;13298;48.792;9.154;2024-03-02T08:05:08;6.40;99.90
25342;DHT22;13298;48.792;9.154;2024-03-02T08:07:34;6.40;99.90
25342;DHT22;13298;48.792;9.154;2024-03-02T08:10:00;6.40;99.90
25342;DHT22;13298;48.792;9.154;2024-03-02T08:12:25;6.40;99.90
25342;DHT22;13298;48.792;9.154;2024-03-02T08:14:51;6.40;99.90
25342;DHT22;13298;48.792;9.154;2024-03-02T08:17:17;6.40;99.90
25342;DHT22;13298;48.792;9.154;2024-03-02T08:19:43;6.40;99.90
25342;DHT22;13298;48.792;9.154;2024-03-02T08:22:09;6.40;99.90
25342;DHT22;13298;48.792;9.154;2024-03-02T08:24:35;6.40;99.90
25342;DHT22;13298;48.792;9.154;2024-03-02T08:27:01;6.50;99.90
25342;DHT22;13298;48.792;9.154;2024-03-02T08:29:27;6.50;99.90
25342;DHT22;13298;48.792;9.154;2024-03-02T08:31:53;6.50;99.90
25342;DHT22;13298;48.792;9.154;2024-03-02T08:34:19;6.60;99.90
25342;DHT22;13298;48.792;9.154;2024-03-02T08:36:46;6.60;99.90
25342;DHT22;13298;48.792;9.154;2024-03-02T08:39:12;6.60;99.90
25342;DHT22;13298;48.792;9.154;2024-03-02T08:41:42;6.70;99.90
25342;DHT22;13298;48.792;9.154;2024-03-02T08:44:09;6.80;99.90
25342;DHT22;13298;48.792;9.154;2024-03-02T08:46:35;6.90;99.90
25342;DHT22;13298;48.792;9.154;2024-03-02T08:49:01;7.00;99.90
25342;DHT22;13298;48.792;9.154;2024-03-02T08:51:27;7.00;99.90
25342;DHT22;13298;48.792;9.154;2024-03-02T08:53:53;7.10;99.90
25342;DHT22;13298;48.792;9.154;2024-03-02T08:56:18;7.30;99.90
25342;DHT22;13298;48.792;9.154;2024-03-02T08:58:45;7.40;99.90
25342;DHT22;13298;48.792;9.154;2024-03-02T09:01:12;7.50;99.90
25342;DHT22;13298;48.792;9.154;2024-03-02T09:03:37;7.60;99.90
25342;DHT22;13298;48.792;9.154;2024-03-02T09:06:03;7.70;99.90
25342;DHT22;13298;48.792;9.154;2024-03-02T09:08:29;7.80;99.90
25342;DHT22;13298;48.792;9.154;2024-03-02T09:10:55;7.90;99.90
25342;DHT22;13298;48.792;9.154;2024-03-02T09:13:22;8.00;99.90
25342;DHT22;13298;48.792;9.154;2024-03-02T09:15:48;8.10;99.90
25342;DHT22;13298;48.792;9.154;2024-03-02T09:18:13;8.20;99.90
25342;DHT22;13298;48.792;9.154;2024-03-02T09:20:39;8.20;99.90
25342;DHT22;13298;48.792;9.154;2024-03-02T09:23:05;8.30;99.90
25342;DHT22;13298;48.792;9.154;2024-03-02T09:25:30;8.40;99.90
25342;DHT22;13298;48.792;9.154;2024-03-02T09:27:56;8.40;99.90
25342;DHT22;13298;48.792;9.154;2024-03-02T09:30:22;8.50;99.90
25342;DHT22;13298;48.792;9.154;2024-03-02T09:32:47;8.60;99.90
25342;DHT22;13298;48.792;9.154;2024-03-02T09:35:13;8.70;99.90
25342;DHT22;13298;48.792;9.154;2024-03-02T09:37:39;8.80;99.90
25342;DHT22;13298;48.792;9.154;2024-03-02T09:40:05;8.90;99.90
25342;DHT22;13298;48.792;9.154;2024-03-02T09:42:31;9.00;99.90
25342;DHT22;13298;48.792;9.154;2024-03-02T09:44:58;9.10;99.90
25342;DHT22;13298;48.792;9.154;2024-03-02T09:47:23;9.20;99.90
25342;DHT22;13298;48.792;9.154;2024-03-02T09:49:49;9.30;99.90
25342;DHT22;13298;48.792;9.154;2024-03-02T09:52:15;9.30;99.90
25342;DHT22;13298;48.792;9.154;2024-03-02T09:54:41;9.40;99.90
25342;DHT22;13298;48.792;9.154;2024-03-02T09:57:07;9.50;99.90
25342;DHT22;13298;48.792;9.154;2024-03-02T09:59:33;9.60;99.90
25342;DHT22;13298;48.792;9.154;2024-03-02T10:02:03;9.70;99.90
25342;DHT22;13298;48.792;9.154;2024-03-02T10:04:32;9.80;99.90
25342;DHT22;13298;48.792;9.154;2024-03-02T10:07:15;9.80;99.90
25342;DHT22;13298;48.792;9.154;2024-03-02T10:09:43;9.80;99.90
25342;DHT22;13298;48.792;9.154;2024-03-02T10:12:11;9.90;99.90
25342;DHT22;13298;48.792;9.154;2024-03-02T10:14:38;10.00;99.90
25342;DHT22;13298;48.792;9.154;2024-03-02T10:17:06;10.10;99.90
25342;DHT22;13298;48.792;9.154;2024-03-02T10:19:33;10.20;99.90
25342;DHT22;13298;48.792;9.154;2024-03-02T10:22:01;10.30;99.90
25342;DHT22;13298;48.792;9.154;2024-03-02T10:24:35;10.30;99.90
25342;DHT22;13298;48.792;9.154;2024-03-02T10:27:17;10.40;99.90
25342;DHT22;13298;48.792;9.154;2024-03-02T10:29:46;10.40;99.90
25342;DHT22;13298;48.792;9.154;2024-03-02T10:32:12;10.40;99.90
25342;DHT22;13298;48.792;9.154;2024-03-02T10:34:44;10.40;99.90
25342;DHT22;13298;48.792;9.154;2024-03-02T10:37:12;10.50;99.90
25342;DHT22;13298;48.792;9.154;2024-03-02T10:39:38;10.50;99.90
25342;DHT22;13298;48.792;9.154;2024-03-02T10:42:05;10.60;99.90
25342;DHT22;13298;48.792;9.154;2024-03-02T10:44:32;10.60;99.90
25342;DHT22;13298;48.792;9.154;2024-03-02T10:47:03;10.70;99.90
25342;DHT22;13298;48.792;9.154;2024-03-02T10:49:33;10.70;99.90
25342;DHT22;13298;48.792;9.154;2024-03-02T10:51:59;10.80;99.90
25342;DHT22;13298;48.792;9.154;2024-03-02T10:54:25;10.90;99.90
25342;DHT22;13298;48.792;9.154;2024-03-02T10:57:01;10.90;99.90
25342;DHT22;13298;48.792;9.154;2024-03-02T10:59:36;10.90;99.90
25342;DHT22;13298;48.792;9.154;2024-03-02T11:02:04;11.00;99.90
25342;DHT22;13298;48.792;9.154;2024-03-02T11:04:32;11.00;99.90
25342;DHT22;13298;48.792;9.154;2024-03-02T11:07:10;11.00;99.90
25342;DHT22;13298;48.792;9.154;2024-03-02T11:10:02;11.10;99.90
25342;DHT22;13298;48.792;9.154;2024-03-02T11:12:38;11.10;99.90
25342;DHT22;13298;48.792;9.154;2024-03-02T11:15:14;11.20;99.90
25342;DHT22;13298;48.792;9.154;2024-03-02T11:17:44;11.30;99.90
25342;DHT22;13298;48.792;9.154;2024-03-02T11:20:10;11.30;99.90
25342;DHT22;13298;48.792;9.154;2024-03-02T11:22:36;11.40;99.90
25342;DHT22;13298;48.792;9.154;2024-03-02T11:25:02;11.40;99.90
25342;DHT22;13298;48.792;9.154;2024-03-02T11:32:58;11.60;99.90
25342;DHT22;13298;48.792;9.154;2024-03-02T11:35:31;11.70;99.90
25342;DHT22;13298;48.792;9.154;2024-03-02T11:37:57;11.70;99.90
25342;DHT22;13298;48.792;9.154;2024-03-02T11:40:25;11.70;99.90
25342;DHT22;13298;48.792;9.154;2024-03-02T11:42:51;11.80;99.90
25342;DHT22;13298;48.792;9.154;2024-03-02T11:45:25;11.90;99.90
25342;DHT22;13298;48.792;9.154;2024-03-02T11:47:54;12.00;99.90
25342;DHT22;13298;48.792;9.154;2024-03-02T11:50:30;12.10;99.90
25342;DHT22;13298;48.792;9.154;2024-03-02T11:52:58;12.20;99.90
25342;DHT22;13298;48.792;9.154;2024-03-02T11:55:25;12.20;99.90
25342;DHT22;13298;48.792;9.154;2024-03-02T11:57:52;12.30;99.90
25342;DHT22;13298;48.792;9.154;2024-03-02T12:00:19;12.40;99.90
25342;DHT22;13298;48.792;9.154;2024-03-02T12:03:07;12.50;99.90
25342;DHT22;13298;48.792;9.154;2024-03-02T12:05:34;12.50;99.90
25342;DHT22;13298;48.792;9.154;2024-03-02T12:08:05;12.50;99.90
25342;DHT22;13298;48.792;9.154;2024-03-02T12:10:33;12.60;99.90
25342;DHT22;13298;48.792;9.154;2024-03-02T12:13:04;12.70;99.90
25342;DHT22;13298;48.792;9.154;2024-03-02T12:15:34;12.80;99.90
25342;DHT22;13298;48.792;9.154;2024-03-02T12:18:02;12.90;99.90
25342;DHT22;13298;48.792;9.154;2024-03-02T12:20:29;13.00;99.90
25342;DHT22;13298;48.792;9.154;2024-03-02T12:22:58;13.10;99.90
25342;DHT22;13298;48.792;9.154;2024-03-02T12:25:25;13.10;99.90
25342;DHT22;13298;48.792;9.154;2024-03-02T12:27:54;13.20;99.90
25342;DHT22;13298;48.792;9.154;2024-03-02T12:30:21;13.30;99.90
25342;DHT22;13298;48.792;9.154;2024-03-02T12:32:48;13.30;99.90
25342;DHT22;13298;48.792;9.154;2024-03-02T12:35:14;13.40;99.90
25342;DHT22;13298;48.792;9.154;2024-03-02T12:37:48;13.30;99.90
25342;DHT22;13298;48.792;9.154;2024-03-02T12:40:16;13.30;99.90
25342;DHT22;13298;48.792;9.154;2024-03-02T12:42:44;13.30;99.90
25342;DHT22;13298;48.792;9.154;2024-03-02T12:45:11;13.30;99.90
25342;DHT22;13298;48.792;9.154;2024-03-02T12:47:38;13.30;99.90
25342;DHT22;13298;48.792;9.154;2024-03-02T12:50:05;13.30;99.90
25342;DHT22;13298;48.792;9.154;2024-03-02T12:52:31;13.30;99.90
25342;DHT22;13298;48.792;9.154;2024-03-02T12:54:59;13.30;99.90
25342;DHT22;13298;48.792;9.154;2024-03-02T12:57:29;13.30;99.90
25342;DHT22;13298;48.792;9.154;2024-03-02T13:00:00;13.30;99.90
25342;DHT22;13298;48.792;9.154;2024-03-02T13:02:30;13.20;99.90
25342;DHT22;13298;48.792;9.154;2024-03-02T13:04:58;13.20;99.90
25342;DHT22;13298;48.792;9.154;2024-03-02T13:07:24;13.20;99.90
25342;DHT22;13298;48.792;9.154;2024-03-02T13:09:51;13.10;99.90
25342;DHT22;13298;48.792;9.154;2024-03-02T13:12:19;13.10;99.90
25342;DHT22;13298;48.792;9.154;2024-03-02T13:14:47;13.10;99.90
25342;DHT22;13298;48.792;9.154;2024-03-02T13:17:14;13.10;99.90
25342;DHT22;13298;48.792;9.154;2024-03-02T13:19:50;13.10;99.90
25342;DHT22;13298;48.792;9.154;2024-03-02T13:22:25;13.10;99.90
25342;DHT22;13298;48.792;9.154;2024-03-02T13:24:53;13.10;99.90
25342;DHT22;13298;48.792;9.154;2024-03-02T13:27:20;13.10;99.90
25342;DHT22;13298;48.792;9.154;2024-03-02T13:29:48;13.20;99.90
25342;DHT22;13298;48.792;9.154;2024-03-02T13:32:15;13.20;99.90
25342;DHT22;13298;48.792;9.154;2024-03-02T13:34:41;13.30;99.90
25342;DHT22;13298;48.792;9.154;2024-03-02T13:37:07;13.20;99.90
25342;DHT22;13298;48.792;9.154;2024-03-02T13:39:33;13.20;99.90
25342;DHT22;13298;48.792;9.154;2024-03-02T13:42:06;13.20;99.90
25342;DHT22;13298;48.792;9.154;2024-03-02T13:44:33;13.10;99.90
25342;DHT22;13298;48.792;9.154;2024-03-02T13:47:03;13.10;99.90
25342;DHT22;13298;48.792;9.154;2024-03-02T13:49:30;13.10;99.90
25342;DHT22;13298;48.792;9.154;2024-03-02T13:52:01;13.20;99.90
25342;DHT22;13298;48.792;9.154;2024-03-02T13:54:37;13.20;99.90
25342;DHT22;13298;48.792;9.154;2024-03-02T13:57:04;13.30;99.90
25342;DHT22;13298;48.792;9.154;2024-03-02T13:59:30;13.30;99.90
25342;DHT22;13298;48.792;9.154;2024-03-02T14:01:56;13.30;99.90
25342;DHT22;13298;48.792;9.154;2024-03-02T14:04:22;13.30;99.90
25342;DHT22;13298;48.792;9.154;2024-03-02T14:06:48;13.30;99.90
25342;DHT22;13298;48.792;9.154;2024-03-02T14:09:14;13.20;99.90
25342;DHT22;13298;48.792;9.154;2024-03-02T14:11:40;13.20;99.90
25342;DHT22;13298;48.792;9.154;2024-03-02T14:14:41;13.30;99.90
25342;DHT22;13298;48.792;9.154;2024-03-02T14:17:07;13.30;99.90
25342;DHT22;13298;48.792;9.154;2024-03-02T14:19:37;13.30;99.90
25342;DHT22;13298;48.792;9.154;2024-03-02T14:22:03;13.40;99.90
25342;DHT22;13298;48.792;9.154;2024-03-02T14:24:28;13.30;99.90
25342;DHT22;13298;48.792;9.154;2024-03-02T14:26:54;13.30;99.90
25342;DHT22;13298;48.792;9.154;2024-03-02T14:29:22;13.30;99.90
25342;DHT22;13298;48.792;9.154;2024-03-02T14:31:48;13.20;99.90
25342;DHT22;13298;48.792;9.154;2024-03-02T14:34:14;13.20;99.90
25342;DHT22;13298;48.792;9.154;2024-03-02T14:36:41;13.30;99.90
25342;DHT22;13298;48.792;9.154;2024-03-02T14:39:09;13.30;99.90
25342;DHT22;13298;48.792;9.154;2024-03-02T14:41:38;13.30;99.90
25342;DHT22;13298;48.792;9.154;2024-03-02T14:44:04;13.30;99.90
25342;DHT22;13298;48.792;9.154;2024-03-02T14:46:30;13.30;99.90
25342;DHT22;13298;48.792;9.154;2024-03-02T14:48:56;13.30;99.90
25342;DHT22;13298;48.792;9.154;2024-03-02T14:51:22;13.20;99.90
25342;DHT22;13298;48.792;9.154;2024-03-02T14:53:48;13.10;99.90
25342;DHT22;13298;48.792;9.154;2024-03-02T14:56:13;13.10;99.90
25342;DHT22;13298;48.792;9.154;2024-03-02T14:58:39;13.10;99.90
25342;DHT22;13298;48.792;9.154;2024-03-02T15:01:05;13.10;99.90
25342;DHT22;13298;48.792;9.154;2024-03-02T15:03:32;13.10;99.90
25342;DHT22;13298;48.792;9.154;2024-03-02T15:05:58;13.10;99.90
25342;DHT22;13298;48.792;9.154;2024-03-02T15:08:24;13.10;99.90
25342;DHT22;13298;48.792;9.154;2024-03-02T15:10:49;13.10;99.90
25342;DHT22;13298;48.792;9.154;2024-03-02T15:13:16;13.10;99.90
25342;DHT22;13298;48.792;9.154;2024-03-02T15:15:41;13.10;99.90
25342;DHT22;13298;48.792;9.154;2024-03-02T15:18:07;13.10;99.90
25342;DHT22;13298;48.792;9.154;2024-03-02T15:20:34;13.10;99.90
25342;DHT22;13298;48.792;9.154;2024-03-02T15:23:00;13.10;99.90
25342;DHT22;13298;48.792;9.154;2024-03-02T15:25:25;13.10;99.90
25342;DHT22;13298;48.792;9.154;2024-03-02T15:27:51;13.10;99.90
25342;DHT22;13298;48.792;9.154;2024-03-02T15:30:17;13.00;99.90
25342;DHT22;13298;48.792;9.154;2024-03-02T15:32:42;12.90;99.90
25342;DHT22;13298;48.792;9.154;2024-03-02T15:35:08;12.80;99.90
25342;DHT22;13298;48.792;9.154;2024-03-02T15:37:34;12.80;99.90
25342;DHT22;13298;48.792;9.154;2024-03-02T15:40:00;12.70;99.90
25342;DHT22;13298;48.792;9.154;2024-03-02T15:42:32;12.60;99.90
25342;DHT22;13298;48.792;9.154;2024-03-02T15:44:58;12.60;99.90
25342;DHT22;13298;48.792;9.154;2024-03-02T15:47:24;12.50;99.90